Airfield :
LOGIN :

Register | Disclaimer

   EN    FR    IT 

 










Legend :    VFR   Marginal VFR   IFR   Intensive IFR   Very Intensive IFR
Visi :
Ceiling :
>= 8 km
>= 3000ft
5 to 8 km
1000 to 3000 ft
1500m to 5 km
500 to 1000 ft
800 to 1500m
200 to 500 ft
< 800m
< 200 ft
Symbols :   Thunderstorms  Fog  Heavy snow  Heavy precipitations  Wind > 20 kt
SIGMETs :     Misc.  Thunderstorms  Icing  Turbulence  Mountain Waves  Volcanic Ashes






- Airport Elevation : 183 ft
- IATA code : HAJ


EDDV - Hanover/Langenhagen Int.

CURRENT METAR :
  • 122050Z 17005KT 140V210 9999 FEW030 05/02 Q1002 NOSIG

EXPIRED METARs :
  • 122020Z 18005KT 9999 FEW023 SCT033 05/02 Q1002 NOSIG
  • 121950Z 17004KT 9999 FEW021 SCT031 05/02 Q1001 NOSIG
  • 121920Z 18004KT 150V210 9999 FEW027 BKN044 05/02 Q1001 NOSIG
  • 121850Z 19005KT 160V230 9999 BKN040 05/02 Q1001 NOSIG
  • 121820Z 23004KT 200V290 9999 SCT019 BKN048 06/03 Q1001 NOSIG

TAF TAF EDDV
Valid from the 12 at 18:00 until the 13 at 18:00 UTC


121700Z 1218/1318 18008KT 9999 SCT030
PROB30
TEMPO 1218/1220 SHRA BKN015CB



MET'MAP, your aeronautical weather chart ! - Copyright ORBIFLY December 2007 - Disclaimer

ORBIFLY MET'MAP TEAM :

Programming & Development : Alexandra Zaïnal
Concept & Development : Baudouin d'Aumeries
Co-Development & Prog : Marc-Olivier Méhu
Technical & hardware support : Manuel Goepfert

Contact : metmap@orbifly.com




SOURCES & CREDITS :

   NOAA